createdAt,value
2017-12-10T00:00:50.374Z,88.33
2017-12-10T00:01:54.736Z,88.47
2017-12-10T00:02:59.115Z,88.51
2017-12-10T00:04:03.488Z,88.65
2017-12-10T00:05:07.889Z,88.66
2017-12-10T00:06:12.666Z,88.50
2017-12-10T00:07:17.070Z,88.59
2017-12-10T00:08:21.380Z,88.66
2017-12-10T00:09:25.828Z,88.43
2017-12-10T00:10:30.206Z,88.56
2017-12-10T00:11:34.603Z,88.49
2017-12-10T00:12:39.238Z,88.20
2017-12-10T00:13:43.590Z,88.28
2017-12-10T00:14:47.896Z,88.18
2017-12-10T00:15:52.383Z,87.94
2017-12-10T00:16:56.737Z,87.96
2017-12-10T00:18:01.097Z,87.95
2017-12-10T00:19:05.736Z,88.14
2017-12-10T00:20:10.018Z,88.09
2017-12-10T00:21:14.456Z,87.88
2017-12-10T00:22:18.841Z,87.92
2017-12-10T00:23:23.142Z,87.62
2017-12-10T00:24:27.446Z,87.84
2017-12-10T00:25:31.764Z,87.82
2017-12-10T00:26:36.231Z,87.39
2017-12-10T00:27:41.543Z,87.72
2017-12-10T00:28:45.960Z,87.62
2017-12-10T00:29:50.339Z,87.78
2017-12-10T00:30:54.903Z,87.47
2017-12-10T00:31:59.381Z,87.84
2017-12-10T00:33:03.730Z,87.77
2017-12-10T00:34:08.089Z,87.80
2017-12-10T00:35:12.425Z,87.78
2017-12-10T00:36:16.758Z,87.36
2017-12-10T00:37:21.526Z,87.55
2017-12-10T00:38:26.960Z,87.69
2017-12-10T00:39:31.402Z,87.79
2017-12-10T00:40:35.753Z,87.87
2017-12-10T00:41:41.172Z,87.78
2017-12-10T00:42:45.912Z,87.82
2017-12-10T00:43:50.234Z,87.56
2017-12-10T00:44:54.605Z,87.78
2017-12-10T00:45:59.170Z,87.76
2017-12-10T00:47:03.670Z,87.94
2017-12-10T00:48:08.027Z,87.90
2017-12-10T00:49:12.722Z,87.30
2017-12-10T00:50:17.067Z,87.63
2017-12-10T00:51:21.408Z,87.47
2017-12-10T00:52:26.425Z,87.56
2017-12-10T00:53:30.739Z,87.70
2017-12-10T00:54:35.058Z,87.87
2017-12-10T00:55:40.101Z,87.96
2017-12-10T00:56:44.504Z,88.08
2017-12-10T00:57:48.958Z,88.00
2017-12-10T00:58:53.345Z,87.71
2017-12-10T00:59:57.709Z,87.87
2017-12-10T01:01:02.133Z,87.82
2017-12-10T01:02:06.590Z,87.89
2017-12-10T01:03:11.027Z,87.41
2017-12-10T01:04:15.461Z,87.86
2017-12-10T01:05:19.828Z,87.51
2017-12-10T01:06:25.734Z,87.89
2017-12-10T01:07:30.473Z,87.86
2017-12-10T01:08:34.844Z,87.74
2017-12-10T01:09:40.210Z,87.64
2017-12-10T01:10:44.537Z,87.64
2017-12-10T01:11:48.933Z,87.70
2017-12-10T01:12:53.390Z,87.44
2017-12-10T01:13:58.027Z,87.61
2017-12-10T01:15:04.153Z,87.56
2017-12-10T01:16:08.462Z,87.61
2017-12-10T01:17:12.741Z,87.45
2017-12-10T01:18:17.130Z,87.52
2017-12-10T01:19:21.463Z,87.38
2017-12-10T01:20:26.941Z,87.47
2017-12-10T01:21:31.254Z,87.65
2017-12-10T01:22:35.692Z,87.41
2017-12-10T01:23:40.728Z,87.85
2017-12-10T01:24:45.161Z,87.91
2017-12-10T01:25:49.777Z,87.96
2017-12-10T01:26:54.101Z,88.01
2017-12-10T01:27:58.482Z,87.81
2017-12-10T01:29:02.779Z,87.97
2017-12-10T01:30:07.566Z,87.75
2017-12-10T01:31:12.050Z,87.92
2017-12-10T01:32:16.641Z,87.93
2017-12-10T01:33:21.057Z,88.06
2017-12-10T01:34:26.006Z,87.84
2017-12-10T01:35:30.618Z,87.85
2017-12-10T01:36:34.916Z,88.07
2017-12-10T01:37:40.215Z,87.85
2017-12-10T01:38:44.999Z,87.94
2017-12-10T01:39:49.319Z,87.85
2017-12-10T01:40:53.666Z,87.59
2017-12-10T01:41:57.957Z,87.62
2017-12-10T01:43:02.280Z,87.57
2017-12-10T01:44:06.715Z,87.57
2017-12-10T01:45:13.362Z,87.48
2017-12-10T01:46:17.784Z,87.32
2017-12-10T01:47:22.320Z,87.53
2017-12-10T01:48:26.693Z,87.51
2017-12-10T01:49:30.986Z,87.23
2017-12-10T01:50:35.390Z,87.51
2017-12-10T01:51:40.332Z,87.49
2017-12-10T01:52:44.714Z,87.29
2017-12-10T01:53:49.131Z,87.64
2017-12-10T01:54:53.423Z,87.25
2017-12-10T01:55:57.740Z,87.26
2017-12-10T01:57:02.037Z,87.56
2017-12-10T01:58:06.745Z,87.63
2017-12-10T01:59:11.188Z,87.35
2017-12-10T02:00:17.462Z,87.14
2017-12-10T02:01:21.765Z,87.64
2017-12-10T02:02:26.360Z,87.54
2017-12-10T02:03:30.943Z,87.31
2017-12-10T02:04:35.675Z,87.37
2017-12-10T02:05:39.995Z,87.70
2017-12-10T02:06:44.420Z,87.61
2017-12-10T02:07:48.787Z,87.69
2017-12-10T02:08:53.175Z,87.75
2017-12-10T02:09:57.526Z,87.81
2017-12-10T02:11:02.128Z,87.86
2017-12-10T02:12:06.479Z,87.90
2017-12-10T02:13:10.791Z,87.70
2017-12-10T02:14:15.165Z,87.62
2017-12-10T02:15:21.936Z,87.67
2017-12-10T02:16:26.511Z,87.86
2017-12-10T02:17:30.884Z,87.92
2017-12-10T02:18:35.153Z,87.86
2017-12-10T02:19:39.636Z,87.54
2017-12-10T02:20:44.032Z,87.41
2017-12-10T02:21:48.413Z,87.51
2017-12-10T02:22:53.132Z,87.47
2017-12-10T02:23:57.493Z,87.55
2017-12-10T02:25:02.784Z,87.52
2017-12-10T02:26:07.161Z,87.27
2017-12-10T02:27:11.440Z,87.45
2017-12-10T02:28:15.860Z,87.27
2017-12-10T02:29:20.680Z,87.37
2017-12-10T02:30:25.252Z,87.22
2017-12-10T02:31:29.577Z,86.58
2017-12-10T02:32:33.917Z,86.59
2017-12-10T02:33:38.324Z,86.33
2017-12-10T02:34:42.665Z,86.85
2017-12-10T02:35:47.240Z,87.07
2017-12-10T02:36:51.556Z,87.31
2017-12-10T02:37:55.854Z,86.95
2017-12-10T02:39:00.324Z,86.63
2017-12-10T02:40:04.770Z,86.91
2017-12-10T02:41:09.119Z,86.86
2017-12-10T02:42:13.423Z,86.76
2017-12-10T02:43:17.760Z,86.79
2017-12-10T02:44:22.186Z,86.86
2017-12-10T02:45:26.692Z,87.22
2017-12-10T02:46:31.105Z,87.50
2017-12-10T02:47:35.493Z,87.38
2017-12-10T02:48:41.061Z,87.22
2017-12-10T02:49:45.474Z,87.08
2017-12-10T02:50:49.812Z,87.06
2017-12-10T02:51:54.202Z,86.79
2017-12-10T02:52:58.502Z,87.17
2017-12-10T02:54:04.367Z,86.87
2017-12-10T02:55:09.124Z,86.84
2017-12-10T02:56:13.455Z,86.95
2017-12-10T02:57:17.798Z,86.99
2017-12-10T02:58:22.094Z,87.02
2017-12-10T02:59:26.416Z,87.05
2017-12-10T03:00:31.061Z,86.89
2017-12-10T03:01:35.714Z,86.75
2017-12-10T03:02:40.009Z,86.86
2017-12-10T03:03:44.363Z,86.84
2017-12-10T03:04:48.670Z,87.18
2017-12-10T03:05:53.146Z,87.24
2017-12-10T03:06:57.883Z,87.44
2017-12-10T03:08:02.402Z,87.70
2017-12-10T03:09:06.761Z,87.66
2017-12-10T03:10:11.207Z,87.59
2017-12-10T03:11:15.706Z,86.96
2017-12-10T03:12:19.812Z,87.37
2017-12-10T03:13:24.461Z,87.62
2017-12-10T03:14:28.907Z,87.44
2017-12-10T03:15:33.621Z,87.43
2017-12-10T03:16:38.215Z,87.37
2017-12-10T03:17:42.542Z,87.24
2017-12-10T03:18:47.896Z,87.43
2017-12-10T03:19:52.637Z,87.41
2017-12-10T03:20:56.973Z,87.24
2017-12-10T03:22:01.296Z,87.39
2017-12-10T03:23:05.575Z,87.21
2017-12-10T03:24:09.920Z,87.37
2017-12-10T03:25:14.248Z,87.51
2017-12-10T03:26:18.977Z,87.34
2017-12-10T03:27:23.260Z,87.39
2017-12-10T03:28:27.541Z,87.26
2017-12-10T03:29:32.807Z,86.88
2017-12-10T03:30:37.482Z,86.96
2017-12-10T03:31:41.859Z,86.96
2017-12-10T03:32:46.169Z,87.31
2017-12-10T03:33:50.456Z,87.17
2017-12-10T03:34:54.772Z,87.34
2017-12-10T03:35:59.175Z,87.71
2017-12-10T03:37:03.497Z,87.82
2017-12-10T03:38:07.873Z,87.37
2017-12-10T03:39:12.253Z,87.43
2017-12-10T03:40:16.630Z,87.64
2017-12-10T03:41:21.026Z,87.41
2017-12-10T03:42:25.891Z,87.22
2017-12-10T03:43:32.030Z,87.31
2017-12-10T03:44:36.301Z,87.63
2017-12-10T03:45:41.418Z,87.56
2017-12-10T03:46:45.786Z,87.65
2017-12-10T03:47:50.138Z,87.40
2017-12-10T03:48:54.711Z,87.25
2017-12-10T03:49:58.967Z,86.94
2017-12-10T03:51:03.262Z,87.08
2017-12-10T03:52:07.706Z,86.92
2017-12-10T03:53:12.121Z,87.11
2017-12-10T03:54:16.431Z,87.15
2017-12-10T03:55:21.071Z,87.41
2017-12-10T03:56:26.231Z,87.15
2017-12-10T03:57:30.518Z,86.91
2017-12-10T03:58:34.824Z,87.30
2017-12-10T03:59:40.140Z,87.31
2017-12-10T04:00:46.911Z,87.66
2017-12-10T04:01:51.587Z,87.23
2017-12-10T04:02:55.847Z,87.21
2017-12-10T04:04:00.198Z,86.80
2017-12-10T04:05:04.527Z,86.68
2017-12-10T04:06:10.940Z,86.85
2017-12-10T04:07:15.275Z,87.01
2017-12-10T04:08:19.863Z,86.91
2017-12-10T04:09:24.288Z,87.12
2017-12-10T04:10:28.603Z,87.04
2017-12-10T04:11:32.974Z,86.85
2017-12-10T04:12:37.253Z,86.95
2017-12-10T04:13:41.518Z,87.00
2017-12-10T04:14:47.780Z,86.88
2017-12-10T04:15:52.352Z,87.02
2017-12-10T04:16:56.746Z,87.28
2017-12-10T04:18:01.055Z,87.28
2017-12-10T04:19:05.434Z,87.41
2017-12-10T04:20:09.715Z,87.33
2017-12-10T04:21:14.297Z,87.26
2017-12-10T04:22:18.678Z,87.50
2017-12-10T04:23:22.955Z,87.63
2017-12-10T04:24:27.238Z,87.43
2017-12-10T04:25:31.614Z,87.49
2017-12-10T04:26:35.921Z,87.49
2017-12-10T04:27:41.210Z,87.50
2017-12-10T04:28:45.461Z,87.39
2017-12-10T04:29:51.755Z,87.38
2017-12-10T04:30:56.622Z,87.83
2017-12-10T04:32:01.131Z,87.86
2017-12-10T04:33:05.501Z,87.95
2017-12-10T04:34:09.819Z,87.73
2017-12-10T04:35:14.079Z,87.87
2017-12-10T04:36:18.349Z,88.04
2017-12-10T04:37:22.694Z,87.72
2017-12-10T04:38:27.649Z,87.44
2017-12-10T04:39:32.345Z,87.56
2017-12-10T04:40:36.710Z,87.58
2017-12-10T04:41:42.598Z,87.21
2017-12-10T04:42:46.994Z,87.66
2017-12-10T04:43:51.242Z,87.45
2017-12-10T04:44:55.545Z,87.36
2017-12-10T04:46:00.657Z,87.22
2017-12-10T04:47:04.926Z,87.35
2017-12-10T04:48:09.284Z,87.22
2017-12-10T04:49:13.613Z,87.36
2017-12-10T04:50:17.890Z,87.53
2017-12-10T04:51:22.170Z,87.38
2017-12-10T04:52:33.242Z,87.17
2017-12-10T04:53:37.525Z,87.30
2017-12-10T04:54:42.802Z,86.97
2017-12-10T04:55:47.089Z,87.22
2017-12-10T04:56:51.384Z,87.28
2017-12-10T04:57:56.059Z,87.36
2017-12-10T04:59:00.354Z,87.40
2017-12-10T05:00:06.262Z,87.02
2017-12-10T05:01:11.173Z,87.40
2017-12-10T05:02:16.163Z,87.48
2017-12-10T05:03:20.496Z,87.39
2017-12-10T05:04:25.919Z,87.37
2017-12-10T05:05:30.747Z,87.45
2017-12-10T05:06:35.198Z,87.85
2017-12-10T05:07:40.143Z,87.89
2017-12-10T05:08:44.712Z,87.69
2017-12-10T05:09:49.111Z,87.85
2017-12-10T05:10:54.013Z,87.60
2017-12-10T05:11:58.331Z,87.77
2017-12-10T05:13:02.686Z,87.92
2017-12-10T05:14:06.959Z,88.07
2017-12-10T05:15:13.303Z,88.24
2017-12-10T05:16:17.576Z,87.95
2017-12-10T05:17:22.017Z,87.88
2017-12-10T05:18:27.006Z,88.22
2017-12-10T05:19:31.254Z,88.16
2017-12-10T05:20:35.533Z,87.81
2017-12-10T05:21:40.417Z,87.95
2017-12-10T05:22:44.795Z,87.82
2017-12-10T05:23:49.090Z,88.22
2017-12-10T05:24:53.650Z,88.43
2017-12-10T05:25:57.929Z,88.32
2017-12-10T05:27:02.486Z,88.41
2017-12-10T05:28:07.173Z,88.58
2017-12-10T05:29:11.731Z,88.68
2017-12-10T05:30:17.602Z,88.62
2017-12-10T05:31:21.898Z,88.69
2017-12-10T05:32:27.347Z,87.67
2017-12-10T05:33:31.781Z,87.91
2017-12-10T05:34:36.037Z,88.23
2017-12-10T05:35:40.774Z,88.29
2017-12-10T05:36:45.408Z,88.43
2017-12-10T05:37:49.775Z,88.69
2017-12-10T05:38:54.087Z,88.07
2017-12-10T05:39:58.475Z,88.03
2017-12-10T05:41:02.747Z,88.30
2017-12-10T05:42:07.010Z,88.45
2017-12-10T05:43:11.755Z,88.61
2017-12-10T05:44:16.063Z,88.43
2017-12-10T05:45:20.663Z,88.25
2017-12-10T05:46:24.936Z,88.57
2017-12-10T05:47:29.292Z,88.39
2017-12-10T05:48:34.007Z,88.60
2017-12-10T05:49:38.803Z,88.61
2017-12-10T05:50:43.105Z,88.04
2017-12-10T05:51:47.393Z,88.09
2017-12-10T05:52:51.729Z,88.16
2017-12-10T05:53:56.046Z,88.11
2017-12-10T05:55:00.353Z,88.01
2017-12-10T05:56:04.680Z,88.31
2017-12-10T05:57:09.056Z,88.65
2017-12-10T05:58:13.473Z,88.42
2017-12-10T05:59:17.734Z,88.52
2017-12-10T06:00:22.445Z,88.51
2017-12-10T06:01:27.504Z,88.12
2017-12-10T06:02:31.845Z,88.53
2017-12-10T06:03:36.472Z,88.77
2017-12-10T06:04:41.654Z,88.39
2017-12-10T06:05:46.286Z,88.36
2017-12-10T06:06:50.631Z,88.33
2017-12-10T06:07:55.131Z,88.36
2017-12-10T06:08:59.511Z,88.38
2017-12-10T06:10:03.793Z,88.57
2017-12-10T06:11:08.171Z,88.43
2017-12-10T06:12:12.804Z,88.24
2017-12-10T06:13:17.139Z,88.02
2017-12-10T06:14:21.594Z,88.15
2017-12-10T06:15:27.065Z,88.15
2017-12-10T06:16:31.436Z,88.18
2017-12-10T06:17:35.729Z,87.94
2017-12-10T06:18:41.008Z,88.11
2017-12-10T06:19:45.384Z,88.27
2017-12-10T06:20:49.636Z,88.28
2017-12-10T06:21:53.879Z,88.29
2017-12-10T06:22:58.144Z,88.08
2017-12-10T06:24:02.726Z,88.25
2017-12-10T06:25:07.075Z,88.20
2017-12-10T06:26:11.342Z,88.24
2017-12-10T06:27:15.599Z,88.28
2017-12-10T06:28:19.875Z,88.64
2017-12-10T06:29:25.084Z,88.92
2017-12-10T06:30:30.046Z,88.78
2017-12-10T06:31:34.327Z,88.61
2017-12-10T06:32:38.589Z,88.89
2017-12-10T06:33:42.863Z,88.87
2017-12-10T06:34:47.218Z,88.54
2017-12-10T06:35:51.594Z,88.22
2017-12-10T06:36:56.142Z,88.42
2017-12-10T06:38:00.560Z,88.57
2017-12-10T06:39:05.213Z,88.63
2017-12-10T06:40:09.642Z,88.62
2017-12-10T06:41:13.938Z,88.59
2017-12-10T06:42:18.167Z,88.48
2017-12-10T06:43:22.701Z,88.33
2017-12-10T06:44:27.914Z,88.14
2017-12-10T06:45:32.498Z,87.90
2017-12-10T06:46:38.024Z,88.15
2017-12-10T06:47:43.208Z,88.26
2017-12-10T06:48:47.514Z,88.11
2017-12-10T06:49:51.814Z,88.07
2017-12-10T06:50:56.183Z,88.24
2017-12-10T06:52:00.490Z,87.95
2017-12-10T06:53:04.830Z,87.72
2017-12-10T06:54:09.169Z,87.52
2017-12-10T06:55:13.447Z,87.73
2017-12-10T06:56:18.177Z,88.06
2017-12-10T06:57:22.442Z,88.07
2017-12-10T06:58:27.728Z,87.88
2017-12-10T06:59:32.048Z,87.63
2017-12-10T07:00:37.165Z,87.69
2017-12-10T07:01:42.370Z,87.73
2017-12-10T07:02:46.965Z,87.90
2017-12-10T07:03:51.392Z,88.41
2017-12-10T07:04:55.644Z,88.36
2017-12-10T07:06:00.072Z,87.78
2017-12-10T07:07:04.354Z,88.07
2017-12-10T07:08:08.665Z,87.58
2017-12-10T07:09:12.935Z,87.31
2017-12-10T07:10:17.316Z,87.22
2017-12-10T07:11:22.801Z,87.07
2017-12-10T07:12:27.822Z,87.18
2017-12-10T07:13:32.125Z,87.30
2017-12-10T07:14:36.914Z,87.26
2017-12-10T07:15:42.310Z,87.18
2017-12-10T07:16:46.678Z,87.01
2017-12-10T07:17:50.954Z,87.05
2017-12-10T07:18:55.266Z,87.33
2017-12-10T07:19:59.661Z,87.34
2017-12-10T07:21:04.272Z,87.04
2017-12-10T07:22:08.698Z,87.35
2017-12-10T07:23:12.991Z,87.12
2017-12-10T07:24:17.295Z,86.82
2017-12-10T07:25:21.606Z,86.46
2017-12-10T07:26:26.839Z,86.48
2017-12-10T07:27:31.604Z,87.05
2017-12-10T07:28:35.927Z,87.40
2017-12-10T07:29:40.252Z,87.42
2017-12-10T07:30:44.670Z,87.39
2017-12-10T07:31:49.976Z,86.85
2017-12-10T07:32:54.421Z,87.22
2017-12-10T07:33:59.129Z,86.63
2017-12-10T07:35:03.407Z,86.89
2017-12-10T07:36:07.646Z,87.20
2017-12-10T07:37:11.943Z,86.64
2017-12-10T07:39:34.385Z,86.39
2017-12-10T07:40:39.016Z,86.49
2017-12-10T07:41:43.397Z,86.20
2017-12-10T07:42:47.761Z,85.87
2017-12-10T07:43:52.185Z,85.98
2017-12-10T07:44:56.497Z,85.57
2017-12-10T07:46:01.147Z,86.02
2017-12-10T07:47:05.820Z,86.17
2017-12-10T07:48:10.181Z,86.38
2017-12-10T07:49:14.555Z,85.83
2017-12-10T07:50:18.860Z,86.19
2017-12-10T07:51:23.215Z,86.02
2017-12-10T07:52:28.427Z,86.71
2017-12-10T07:53:32.710Z,86.52
2017-12-10T07:54:37.065Z,86.34
2017-12-10T07:55:41.395Z,85.69
2017-12-10T07:56:45.776Z,84.97
2017-12-10T07:57:50.116Z,85.71
2017-12-10T07:58:54.831Z,86.00
2017-12-10T07:59:59.203Z,86.31
2017-12-10T08:01:04.019Z,85.78
2017-12-10T08:02:08.649Z,85.89
2017-12-10T08:03:12.970Z,85.77
2017-12-10T08:04:17.374Z,85.86
2017-12-10T08:05:22.064Z,85.50
2017-12-10T08:06:26.359Z,85.48
2017-12-10T08:07:30.727Z,85.14
2017-12-10T08:08:35.066Z,85.21
2017-12-10T08:09:39.352Z,84.96
2017-12-10T08:10:43.791Z,84.98
2017-12-10T08:11:48.437Z,85.30
2017-12-10T08:12:52.694Z,84.99
2017-12-10T08:13:57.106Z,84.99
2017-12-10T08:15:02.709Z,84.45
2017-12-10T08:16:07.135Z,84.76
2017-12-10T08:17:11.636Z,85.50
2017-12-10T08:18:16.265Z,85.87
2017-12-10T08:19:20.600Z,85.80
2017-12-10T08:20:24.988Z,85.36
2017-12-10T08:21:29.274Z,85.74
2017-12-10T08:22:33.614Z,85.11
2017-12-10T08:23:37.953Z,85.63
2017-12-10T08:24:42.363Z,85.06
2017-12-10T08:25:47.286Z,85.85
2017-12-10T08:26:52.230Z,85.55
2017-12-10T08:27:56.544Z,85.69
2017-12-10T08:29:01.182Z,85.42
2017-12-10T08:30:07.249Z,85.34
2017-12-10T08:31:11.678Z,85.56
2017-12-10T08:32:16.055Z,85.17
2017-12-10T08:33:20.382Z,85.04
2017-12-10T08:34:24.871Z,85.00
2017-12-10T08:35:29.897Z,84.99
2017-12-10T08:36:34.739Z,84.83
2017-12-10T08:37:39.348Z,84.62
2017-12-10T08:38:44.134Z,84.66
2017-12-10T08:39:48.577Z,84.53
2017-12-10T08:40:53.119Z,84.96
2017-12-10T08:41:57.774Z,84.80
2017-12-10T08:43:02.234Z,84.77
2017-12-10T08:44:06.620Z,84.53
2017-12-10T08:45:12.111Z,84.26
2017-12-10T08:46:16.723Z,85.28
2017-12-10T08:47:21.354Z,85.38
2017-12-10T08:48:26.000Z,85.11
2017-12-10T08:49:30.376Z,85.05
2017-12-10T08:50:34.741Z,85.02
2017-12-10T08:51:39.264Z,85.39
2017-12-10T08:52:43.651Z,85.55
2017-12-10T08:53:48.997Z,85.32
2017-12-10T08:54:53.394Z,85.37
2017-12-10T08:57:00.975Z,84.82
2017-12-10T08:58:05.437Z,84.29
2017-12-10T08:59:09.877Z,83.91
2017-12-10T09:00:16.211Z,83.91
2017-12-10T09:01:20.599Z,84.06
2017-12-10T09:02:24.920Z,84.09
2017-12-10T09:03:29.324Z,84.04
2017-12-10T09:04:33.736Z,84.30
2017-12-10T09:05:38.396Z,84.08
2017-12-10T09:06:42.866Z,84.41
2017-12-10T09:07:47.757Z,84.38
2017-12-10T09:08:52.179Z,84.17
2017-12-10T09:09:57.522Z,83.89
2017-12-10T09:11:01.857Z,83.83
2017-12-10T09:12:06.218Z,84.40
2017-12-10T09:13:10.696Z,84.22
2017-12-10T09:14:15.110Z,84.42
2017-12-10T09:15:19.837Z,84.38
2017-12-10T09:16:24.143Z,84.07
2017-12-10T09:17:28.536Z,83.52
2017-12-10T09:18:33.502Z,83.53
2017-12-10T09:19:37.849Z,84.10
2017-12-10T09:20:42.274Z,83.61
2017-12-10T09:21:46.574Z,84.08
2017-12-10T09:22:52.278Z,83.46
2017-12-10T09:23:57.608Z,83.73
2017-12-10T09:25:02.103Z,83.47
2017-12-10T09:26:06.487Z,83.28
2017-12-10T09:27:10.831Z,83.61
2017-12-10T09:28:18.438Z,82.92
2017-12-10T09:29:22.874Z,83.21
2017-12-10T09:30:27.295Z,83.54
2017-12-10T09:31:31.713Z,83.04
2017-12-10T09:32:36.028Z,82.80
2017-12-10T09:33:40.480Z,83.09
2017-12-10T09:34:45.200Z,82.66
2017-12-10T09:35:50.128Z,82.85
2017-12-10T09:36:56.799Z,82.24
2017-12-10T09:38:01.757Z,81.71
2017-12-10T09:39:06.306Z,82.21
2017-12-10T09:40:10.770Z,82.31
2017-12-10T09:41:15.688Z,82.37
2017-12-10T09:42:28.725Z,82.78
2017-12-10T09:43:33.176Z,82.49
2017-12-10T09:44:37.512Z,82.58
2017-12-10T09:45:42.180Z,82.60
2017-12-10T09:46:48.119Z,82.94
2017-12-10T09:47:53.008Z,82.88
2017-12-10T09:48:57.375Z,83.12
2017-12-10T09:50:01.782Z,82.75
2017-12-10T09:51:06.118Z,82.55
2017-12-10T09:52:10.515Z,82.51
2017-12-10T09:53:14.833Z,82.67
2017-12-10T09:54:19.345Z,82.91
2017-12-10T09:55:24.065Z,83.04
2017-12-10T09:56:28.449Z,82.88
2017-12-10T09:57:32.829Z,82.95
2017-12-10T09:58:37.206Z,83.11
2017-12-10T09:59:41.596Z,83.09
2017-12-10T10:00:47.839Z,82.83
2017-12-10T10:01:52.828Z,83.18
2017-12-10T10:02:57.289Z,83.50
2017-12-10T10:04:01.692Z,83.18
2017-12-10T10:05:06.014Z,83.53
2017-12-10T10:06:10.522Z,83.53
2017-12-10T10:07:15.224Z,83.27
2017-12-10T10:08:19.650Z,82.95
2017-12-10T10:09:23.980Z,82.79
2017-12-10T10:10:28.449Z,83.22
2017-12-10T10:11:32.880Z,82.46
2017-12-10T10:12:37.362Z,83.13
2017-12-10T10:13:41.796Z,82.65
2017-12-10T10:14:46.140Z,82.95
2017-12-10T10:15:51.021Z,82.68
2017-12-10T10:16:55.975Z,82.93
2017-12-10T10:18:00.621Z,82.80
2017-12-10T10:19:05.094Z,82.49
2017-12-10T10:20:09.496Z,82.41
2017-12-10T10:21:13.978Z,82.35
2017-12-10T10:22:18.438Z,82.67
2017-12-10T10:23:22.733Z,82.72
2017-12-10T10:24:27.588Z,82.59
2017-12-10T10:25:32.042Z,82.37
2017-12-10T10:26:36.516Z,82.92
2017-12-10T10:27:40.936Z,82.05
2017-12-10T10:28:46.184Z,82.20
2017-12-10T10:29:50.567Z,82.47
2017-12-10T10:30:56.366Z,82.63
2017-12-10T10:32:00.740Z,82.25
2017-12-10T10:33:05.649Z,82.59
2017-12-10T10:34:09.991Z,82.32
2017-12-10T10:35:14.404Z,82.52
2017-12-10T10:36:18.821Z,83.10
2017-12-10T10:37:23.340Z,83.14
2017-12-10T10:38:27.743Z,83.09
2017-12-10T10:39:32.073Z,83.20
2017-12-10T10:40:36.451Z,82.94
2017-12-10T10:41:40.835Z,82.53
2017-12-10T10:42:46.987Z,82.15
2017-12-10T10:43:52.395Z,82.22
2017-12-10T10:44:56.763Z,82.45
2017-12-10T10:46:01.420Z,82.87
2017-12-10T10:47:05.989Z,82.79
2017-12-10T10:48:10.675Z,83.20
2017-12-10T10:49:15.064Z,82.72
2017-12-10T10:50:19.571Z,82.65
2017-12-10T10:51:23.966Z,82.36
2017-12-10T10:52:28.283Z,83.57
2017-12-10T10:53:32.775Z,83.05
2017-12-10T10:54:37.544Z,83.03
2017-12-10T10:55:41.923Z,82.95
2017-12-10T10:56:46.919Z,83.05
2017-12-10T10:57:51.399Z,82.82
2017-12-10T10:58:56.686Z,82.56
2017-12-10T11:00:01.369Z,82.96
2017-12-10T11:01:06.732Z,83.23
2017-12-10T11:02:11.133Z,83.01
2017-12-10T11:03:15.623Z,83.13
2017-12-10T11:04:20.137Z,83.25
2017-12-10T11:05:24.512Z,83.49
2017-12-10T11:06:29.240Z,83.62
2017-12-10T11:07:33.663Z,83.71
2017-12-10T11:08:38.140Z,83.59
2017-12-10T11:09:43.048Z,83.93
2017-12-10T11:10:48.684Z,83.24
2017-12-10T11:11:53.962Z,83.93
2017-12-10T11:12:58.374Z,83.66
2017-12-10T11:14:02.909Z,83.89
2017-12-10T11:15:07.507Z,83.55
2017-12-10T11:16:11.958Z,83.39
2017-12-10T11:17:16.702Z,83.31
2017-12-10T11:18:21.338Z,83.58
2017-12-10T11:19:25.752Z,83.64
2017-12-10T11:20:30.165Z,83.66
2017-12-10T11:21:34.571Z,83.37
2017-12-10T11:22:38.966Z,83.81
2017-12-10T11:23:44.287Z,83.70
2017-12-10T11:24:50.002Z,83.39
2017-12-10T11:25:54.321Z,83.57
2017-12-10T11:26:58.641Z,83.52
2017-12-10T11:28:03.204Z,83.43
2017-12-10T11:29:07.566Z,83.07
2017-12-10T11:30:13.140Z,83.47
2017-12-10T11:31:17.516Z,83.29
2017-12-10T11:32:21.824Z,82.94
2017-12-10T11:33:26.333Z,82.75
2017-12-10T11:34:30.806Z,82.98
2017-12-10T11:35:35.434Z,82.97
2017-12-10T11:36:40.093Z,82.61
2017-12-10T11:37:45.012Z,82.62
2017-12-10T11:38:49.425Z,83.02
2017-12-10T11:39:53.888Z,82.85
2017-12-10T11:40:58.419Z,83.12
2017-12-10T11:42:02.999Z,83.05
2017-12-10T11:43:07.849Z,83.11
2017-12-10T11:44:12.241Z,83.17
2017-12-10T11:45:17.144Z,83.56
2017-12-10T11:46:21.644Z,83.24
2017-12-10T11:47:26.036Z,83.33
2017-12-10T11:48:30.452Z,83.34
2017-12-10T11:49:35.217Z,83.17
2017-12-10T11:50:39.705Z,82.77
2017-12-10T11:51:44.203Z,82.68
2017-12-10T11:52:49.223Z,82.73
2017-12-10T11:53:53.633Z,82.94
2017-12-10T11:54:58.381Z,83.08
2017-12-10T11:56:02.870Z,82.96
2017-12-10T11:57:07.299Z,82.49
2017-12-10T11:58:11.717Z,82.19
2017-12-10T11:59:16.115Z,82.24
2017-12-10T12:00:20.685Z,82.13
2017-12-10T12:01:25.118Z,82.21
2017-12-10T12:02:29.628Z,82.17
2017-12-10T12:03:34.117Z,82.54
2017-12-10T12:04:38.546Z,82.70
2017-12-10T12:05:43.050Z,83.04
2017-12-10T12:06:47.979Z,82.67
2017-12-10T12:07:53.244Z,82.57
2017-12-10T12:08:57.701Z,82.83
2017-12-10T12:10:02.202Z,82.72
2017-12-10T12:11:06.633Z,82.55
2017-12-10T12:12:11.037Z,82.45
2017-12-10T12:13:16.391Z,82.46
2017-12-10T12:14:20.815Z,82.03
2017-12-10T12:15:25.291Z,82.22
2017-12-10T12:16:29.690Z,81.62
2017-12-10T12:17:34.148Z,81.62
2017-12-10T12:18:38.656Z,81.72
2017-12-10T12:19:43.467Z,81.50
2017-12-10T12:20:47.845Z,80.86
2017-12-10T12:21:52.359Z,80.74
2017-12-10T12:22:56.804Z,81.00
2017-12-10T12:24:01.407Z,80.84
2017-12-10T12:25:06.807Z,80.86
2017-12-10T12:26:11.218Z,80.55
2017-12-10T12:27:15.776Z,80.46
2017-12-10T12:28:20.253Z,80.90
2017-12-10T12:29:24.866Z,81.46
2017-12-10T12:30:29.538Z,81.12
2017-12-10T12:31:34.068Z,81.27
2017-12-10T12:32:38.781Z,80.56
2017-12-10T12:33:43.319Z,81.30
2017-12-10T12:34:48.812Z,81.39
2017-12-10T12:35:53.248Z,80.80
2017-12-10T12:38:10.711Z,80.96
2017-12-10T12:39:15.639Z,80.71
2017-12-10T12:40:20.158Z,81.19
2017-12-10T12:41:24.695Z,81.35
2017-12-10T12:42:29.131Z,81.46
2017-12-10T12:43:33.734Z,81.55
2017-12-10T12:44:38.378Z,81.45
2017-12-10T12:45:43.726Z,81.29
2017-12-10T12:46:48.164Z,81.35
2017-12-10T12:47:53.390Z,81.21
2017-12-10T12:48:58.012Z,80.75
2017-12-10T12:50:02.848Z,81.37
2017-12-10T12:51:07.299Z,81.52
2017-12-10T12:52:11.729Z,81.60
2017-12-10T12:53:16.142Z,81.25
2017-12-10T12:54:20.596Z,81.17
2017-12-10T12:55:25.175Z,81.13
2017-12-10T12:56:29.559Z,80.90
2017-12-10T12:57:34.021Z,80.85
2017-12-10T12:58:38.457Z,80.87
2017-12-10T12:59:43.116Z,80.91
2017-12-10T13:00:49.771Z,80.99
2017-12-10T13:01:54.255Z,81.13
2017-12-10T13:02:58.661Z,81.16
2017-12-10T13:04:03.447Z,81.24
2017-12-10T13:05:07.903Z,81.00
2017-12-10T13:06:12.442Z,81.00
2017-12-10T13:07:16.876Z,80.41
2017-12-10T13:08:21.365Z,80.75
2017-12-10T13:09:25.801Z,80.87
2017-12-10T13:10:30.662Z,81.71
2017-12-10T13:11:35.393Z,81.43
2017-12-10T13:12:39.890Z,80.78
2017-12-10T13:13:44.380Z,80.91
2017-12-10T13:14:48.978Z,80.53
2017-12-10T13:15:54.291Z,80.96
2017-12-10T13:16:59.413Z,80.86
2017-12-10T13:18:03.981Z,80.19
2017-12-10T13:19:08.618Z,80.17
2017-12-10T13:20:13.231Z,80.34
2017-12-10T13:21:17.651Z,79.93
2017-12-10T13:22:22.113Z,80.39
2017-12-10T13:23:26.526Z,80.40
2017-12-10T13:24:30.982Z,80.15
2017-12-10T13:25:35.472Z,80.34
2017-12-10T13:26:39.955Z,80.34
2017-12-10T13:27:44.340Z,79.81
2017-12-10T13:28:49.049Z,79.69
2017-12-10T13:29:54.316Z,79.75
2017-12-10T13:30:59.085Z,80.02
2017-12-10T13:32:04.116Z,80.03
2017-12-10T13:33:08.664Z,79.92
2017-12-10T13:34:13.706Z,79.48
2017-12-10T13:35:18.391Z,79.37
2017-12-10T13:36:23.014Z,79.51
2017-12-10T13:37:27.712Z,79.28
2017-12-10T13:38:32.175Z,79.06
2017-12-10T13:39:36.632Z,78.34
2017-12-10T13:40:41.073Z,78.39
2017-12-10T13:41:45.951Z,78.60
2017-12-10T13:42:50.392Z,78.78
2017-12-10T13:43:54.925Z,78.65
2017-12-10T13:44:59.346Z,79.02
2017-12-10T13:46:03.991Z,78.98
2017-12-10T13:47:08.568Z,78.63
2017-12-10T13:48:12.973Z,78.68
2017-12-10T13:49:17.634Z,78.86
2017-12-10T13:50:22.204Z,78.75
2017-12-10T13:51:26.745Z,78.96
2017-12-10T13:52:31.401Z,78.92
2017-12-10T13:53:35.886Z,79.14
2017-12-10T13:54:40.648Z,79.89
2017-12-10T13:55:45.026Z,80.13